Climax, Michigan
Current Conditions -  °F | °C
As of 9:53 AM on Tuesday 21 Oct 2014 (Local Time) from KBTL Reporting Station
Haze Haze  
Wind Chill: 43°   Ceiling: 700
Heat Index: 47°   Visibility: 4mi
Dew Point: 44°   Wind: 8mph
Humidity: 90%   Direction: 360°N
Pressure: 30.06"   Gusts: NA
Location:  42.24°N, 85.33°W
Report Text: KBTL 211353Z 36007KT 4SM BR OVC007 08/07 A3006 RMK AO2 CIG 006V010 SLP181 T00830067
Loading
Personal Weather Stations






























Interactive Weather Map
Tropical Storm Tracking
New forecast layout! Learn more

10-Day Weather Forecast

Advertisements
Track Severe Weather on mobile